createdAt,value
2019-02-02T05:00:24.626Z,0
2019-02-02T05:03:52.521Z,0
2019-02-02T05:07:21.398Z,0
2019-02-02T05:10:49.306Z,0
2019-02-02T05:14:17.243Z,0
2019-02-02T05:17:45.145Z,0
2019-02-02T05:21:13.068Z,0
2019-02-02T05:24:40.984Z,0
2019-02-02T05:28:08.872Z,0
2019-02-02T05:31:36.789Z,0
2019-02-02T05:35:04.693Z,0
2019-02-02T05:38:32.600Z,0
2019-02-02T05:42:00.494Z,0
2019-02-02T05:45:28.422Z,0
2019-02-02T05:48:56.320Z,0
2019-02-02T05:52:24.213Z,0
2019-02-02T05:55:52.151Z,0
2019-02-02T05:59:20.058Z,0
2019-02-02T06:02:47.941Z,0
2019-02-02T06:06:15.862Z,0
2019-02-02T06:09:43.758Z,0
2019-02-02T06:13:12.664Z,0
2019-02-02T06:16:40.543Z,0
2019-02-02T06:20:08.446Z,0
2019-02-02T06:23:36.384Z,1
2019-02-02T06:27:04.281Z,1
2019-02-02T06:30:32.185Z,4
2019-02-02T06:34:00.141Z,6
2019-02-02T06:37:27.982Z,10
2019-02-02T06:40:55.917Z,16
2019-02-02T06:44:23.828Z,26
2019-02-02T06:47:51.729Z,36
2019-02-02T06:51:19.604Z,47
2019-02-02T06:54:47.494Z,61
2019-02-02T06:58:15.389Z,78
2019-02-02T07:01:43.300Z,103
2019-02-02T07:05:11.196Z,127
2019-02-02T07:08:39.093Z,143
2019-02-02T07:12:07.979Z,179
2019-02-02T07:15:35.989Z,204
2019-02-02T07:19:03.801Z,206
2019-02-02T07:22:31.715Z,232
2019-02-02T07:25:59.614Z,301
2019-02-02T07:29:28.125Z,369
2019-02-02T07:32:56.036Z,360
2019-02-02T07:36:23.922Z,373
2019-02-02T07:39:51.844Z,434
2019-02-02T07:43:19.742Z,410
2019-02-02T07:46:47.631Z,383
2019-02-02T07:50:15.533Z,394
2019-02-02T07:53:44.430Z,469
2019-02-02T07:57:12.329Z,441
2019-02-02T08:00:42.211Z,436
2019-02-02T08:04:10.118Z,494
2019-02-02T08:07:38.049Z,480
2019-02-02T08:11:05.994Z,425
2019-02-02T08:14:33.980Z,370
2019-02-02T08:18:01.959Z,377
2019-02-02T08:21:29.852Z,401
2019-02-02T08:24:58.773Z,479
2019-02-02T08:28:26.683Z,490
2019-02-02T08:31:54.564Z,581
2019-02-02T08:35:22.505Z,633
2019-02-02T08:38:50.418Z,706
2019-02-02T08:42:19.307Z,780
2019-02-02T08:45:47.209Z,875
2019-02-02T08:49:15.105Z,837
2019-02-02T08:52:42.989Z,766
2019-02-02T08:56:10.898Z,664
2019-02-02T08:59:38.818Z,652
2019-02-02T09:03:06.712Z,616
2019-02-02T09:06:39.269Z,582
2019-02-02T09:10:06.473Z,585
2019-02-02T09:13:36.569Z,705
2019-02-02T09:17:03.247Z,771
2019-02-02T09:20:31.170Z,853
2019-02-02T09:23:59.058Z,1008
2019-02-02T09:27:27.005Z,972
2019-02-02T09:30:54.913Z,889
2019-02-02T09:34:22.803Z,851
2019-02-02T09:37:51.695Z,854
2019-02-02T09:41:19.621Z,875
2019-02-02T09:44:47.613Z,792
2019-02-02T09:48:15.637Z,689
2019-02-02T09:51:43.544Z,747
2019-02-02T09:55:12.434Z,815
2019-02-02T09:58:40.346Z,789
2019-02-02T10:02:08.280Z,682
2019-02-02T10:05:36.255Z,699
2019-02-02T10:09:05.186Z,818
2019-02-02T10:12:33.114Z,957
2019-02-02T10:16:01.051Z,1083
2019-02-02T10:19:28.948Z,1132
2019-02-02T10:22:57.853Z,1121
2019-02-02T10:26:25.788Z,959
2019-02-02T10:29:53.729Z,847
2019-02-02T10:33:21.621Z,913
2019-02-02T10:36:49.576Z,967
2019-02-02T10:40:17.844Z,1195
2019-02-02T10:43:45.744Z,1169
2019-02-02T10:47:13.675Z,1094
2019-02-02T10:50:41.620Z,970
2019-02-02T10:54:09.532Z,1147
2019-02-02T10:57:38.494Z,1484
2019-02-02T11:01:06.499Z,1451
2019-02-02T11:04:34.481Z,1632
2019-02-02T11:08:02.375Z,1484
2019-02-02T11:11:30.273Z,1624
2019-02-02T11:14:58.283Z,1470
2019-02-02T11:18:26.265Z,1530
2019-02-02T11:21:54.158Z,1638
2019-02-02T11:25:22.062Z,1579
2019-02-02T11:28:51.065Z,1573
2019-02-02T11:32:18.955Z,1489
2019-02-02T11:35:46.897Z,1532
2019-02-02T11:39:14.808Z,1466
2019-02-02T11:42:43.817Z,1134
2019-02-02T11:46:11.785Z,989
2019-02-02T11:49:39.682Z,1224
2019-02-02T11:53:07.586Z,1304
2019-02-02T11:56:35.621Z,1316
2019-02-02T12:00:03.497Z,1292
2019-02-02T12:03:31.420Z,1160
2019-02-02T12:06:59.366Z,1207
2019-02-02T12:10:27.322Z,1254
2019-02-02T12:13:55.285Z,1091
2019-02-02T12:17:23.269Z,1049
2019-02-02T12:20:51.208Z,1095
2019-02-02T12:24:19.158Z,1026
2019-02-02T12:27:47.077Z,958
2019-02-02T12:31:15.007Z,764
2019-02-02T12:34:42.913Z,790
2019-02-02T12:38:11.804Z,750
2019-02-02T12:41:39.704Z,681
2019-02-02T12:45:07.615Z,651
2019-02-02T12:48:35.505Z,641
2019-02-02T12:52:03.415Z,697
2019-02-02T12:55:31.319Z,660
2019-02-02T12:58:59.213Z,667
2019-02-02T13:02:37.737Z,649
2019-02-02T13:06:01.970Z,655
2019-02-02T13:09:29.894Z,604
2019-02-02T13:12:57.791Z,516
2019-02-02T13:16:25.733Z,463
2019-02-02T13:19:53.675Z,410
2019-02-02T13:23:21.643Z,386
2019-02-02T13:26:49.635Z,343
2019-02-02T13:30:17.638Z,318
2019-02-02T13:33:45.637Z,306
2019-02-02T13:37:14.671Z,278
2019-02-02T13:40:42.899Z,275
2019-02-02T13:44:10.922Z,291
2019-02-02T13:47:39.986Z,280
2019-02-02T13:51:08.962Z,283
2019-02-02T13:54:36.936Z,297
2019-02-02T13:58:05.260Z,313
2019-02-02T14:01:41.875Z,301
2019-02-02T14:05:07.504Z,273
2019-02-02T14:08:36.746Z,254
2019-02-02T14:12:04.690Z,272
2019-02-02T14:15:32.852Z,262
2019-02-02T14:19:01.793Z,231
2019-02-02T14:22:30.013Z,187
2019-02-02T14:25:58.040Z,168
2019-02-02T14:29:25.981Z,167
2019-02-02T14:32:55.886Z,182
2019-02-02T14:36:23.794Z,155
2019-02-02T14:39:52.783Z,130
2019-02-02T14:43:21.699Z,135
2019-02-02T14:46:49.620Z,132
2019-02-02T14:50:19.505Z,121
2019-02-02T14:53:48.390Z,123
2019-02-02T14:57:16.297Z,117
2019-02-02T15:00:44.227Z,103
2019-02-02T15:04:12.261Z,96
2019-02-02T15:07:40.133Z,96
2019-02-02T15:11:08.312Z,103
2019-02-02T15:14:36.226Z,95
2019-02-02T15:18:04.164Z,76
2019-02-02T15:21:32.089Z,63
2019-02-02T15:25:00.204Z,42
2019-02-02T15:28:28.073Z,33
2019-02-02T15:31:56.090Z,33
2019-02-02T15:35:24.065Z,28
2019-02-02T15:38:51.981Z,28
2019-02-02T15:42:20.907Z,21
2019-02-02T15:45:48.889Z,18
2019-02-02T15:49:16.929Z,14
2019-02-02T15:52:45.879Z,12
2019-02-02T15:56:14.042Z,9
2019-02-02T15:59:42.009Z,8
2019-02-02T16:03:09.913Z,4
2019-02-02T16:06:37.864Z,3
2019-02-02T16:10:05.817Z,2
2019-02-02T16:13:33.722Z,1
2019-02-02T16:17:01.682Z,1
2019-02-02T16:20:29.652Z,0
2019-02-02T16:23:57.600Z,0
2019-02-02T16:27:25.535Z,0
2019-02-02T16:30:53.569Z,0
2019-02-02T16:34:21.500Z,0
2019-02-02T16:37:49.461Z,0
2019-02-02T16:41:17.495Z,0
2019-02-02T16:44:46.401Z,0
2019-02-02T16:48:14.409Z,0
2019-02-02T16:51:42.350Z,0
2019-02-02T16:55:10.410Z,0
2019-02-02T16:58:39.223Z,0
2019-02-02T17:02:07.194Z,0
2019-02-02T17:05:35.162Z,0
2019-02-02T17:09:04.366Z,0
2019-02-02T17:12:32.343Z,0
2019-02-02T17:16:00.368Z,0
2019-02-02T17:19:28.305Z,0
2019-02-02T17:22:56.265Z,0
2019-02-02T17:26:24.184Z,0
2019-02-02T17:29:52.152Z,0
2019-02-02T17:33:20.100Z,0
2019-02-02T17:36:48.008Z,0
2019-02-02T17:40:15.941Z,0
2019-02-02T17:43:43.900Z,0
2019-02-02T17:47:11.839Z,0
2019-02-02T17:50:41.032Z,0
2019-02-02T17:54:09.007Z,0
2019-02-02T17:57:36.931Z,0
2019-02-02T18:01:04.866Z,0
2019-02-02T18:04:39.336Z,0
2019-02-02T18:08:08.636Z,0
2019-02-02T18:11:36.534Z,0
2019-02-02T18:15:04.492Z,0
2019-02-02T18:18:32.484Z,0
2019-02-02T18:22:00.459Z,0
2019-02-02T18:25:28.429Z,0
2019-02-02T18:28:57.374Z,0
2019-02-02T18:32:25.336Z,0
2019-02-02T18:35:53.301Z,0
2019-02-02T18:39:21.262Z,0
2019-02-02T18:42:49.214Z,0
2019-02-02T18:46:17.227Z,0
2019-02-02T18:49:45.214Z,0
2019-02-02T18:53:13.131Z,0
2019-02-02T18:56:41.034Z,0
2019-02-02T19:00:08.948Z,0
2019-02-02T19:03:36.881Z,0
2019-02-02T19:07:04.812Z,0
2019-02-02T19:10:32.841Z,0
2019-02-02T19:14:00.851Z,0
2019-02-02T19:17:28.774Z,0
2019-02-02T19:20:56.796Z,0
2019-02-02T19:24:24.835Z,0
2019-02-02T19:27:52.746Z,0
2019-02-02T19:31:20.666Z,0
2019-02-02T19:34:48.592Z,0
2019-02-02T19:38:16.789Z,0
2019-02-02T19:41:44.648Z,0
2019-02-02T19:45:12.609Z,0
2019-02-02T19:48:40.579Z,0
2019-02-02T19:52:09.359Z,0
2019-02-02T19:55:37.271Z,0
2019-02-02T19:59:05.258Z,0
2019-02-02T20:02:33.210Z,0
2019-02-02T20:06:01.307Z,0
2019-02-02T20:09:31.190Z,0
2019-02-02T20:12:59.175Z,0
2019-02-02T20:16:27.176Z,0
2019-02-02T20:19:55.710Z,0
2019-02-02T20:23:24.379Z,0
2019-02-02T20:26:52.322Z,0
2019-02-02T20:30:20.267Z,0
2019-02-02T20:33:48.193Z,0
2019-02-02T20:37:16.127Z,0
2019-02-02T20:40:45.061Z,0
2019-02-02T20:44:13.077Z,0
2019-02-02T20:47:41.166Z,0
2019-02-02T20:51:09.131Z,0
2019-02-02T20:54:37.048Z,0
2019-02-02T20:58:05.246Z,0
2019-02-02T21:01:33.336Z,0
2019-02-02T21:05:01.405Z,0
2019-02-02T21:08:35.946Z,0
2019-02-02T21:12:04.006Z,0
2019-02-02T21:15:32.018Z,0
2019-02-02T21:18:59.959Z,0
2019-02-02T21:22:27.968Z,0
2019-02-02T21:25:56.134Z,0
2019-02-02T21:29:24.314Z,0
2019-02-02T21:32:52.204Z,0
2019-02-02T21:36:20.989Z,0
2019-02-02T21:39:49.021Z,0
2019-02-02T21:43:17.961Z,0
2019-02-02T21:46:46.896Z,0
2019-02-02T21:50:14.798Z,0
2019-02-02T21:53:42.771Z,0
2019-02-02T21:57:10.679Z,0
2019-02-02T22:00:38.594Z,0
2019-02-02T22:04:06.502Z,0
2019-02-02T22:07:35.056Z,0
2019-02-02T22:11:02.986Z,0
2019-02-02T22:14:32.625Z,0
2019-02-02T22:18:00.660Z,0
2019-02-02T22:21:28.641Z,0
2019-02-02T22:24:56.566Z,0
2019-02-02T22:28:24.620Z,0
2019-02-02T22:31:52.547Z,0
2019-02-02T22:35:20.580Z,0
2019-02-02T22:38:48.545Z,0
2019-02-02T22:42:17.295Z,0
2019-02-02T22:45:45.216Z,0
2019-02-02T22:49:13.209Z,0
2019-02-02T22:52:41.262Z,0
2019-02-02T22:56:09.857Z,0
2019-02-02T22:59:37.831Z,0
